Time;durP1;ratioP1;P1;durP2;ratioP2;P2;SDS_P1;SDS_P2;PMS_P1;PMS_P2;Temp;Humidity;BMP_temperature;BMP_pressure;BME280_temperature;BME280_humidity;BME280_pressure;Samples;Min_cycle;Max_cycle;Signal;HPM_P1;HPM_P2
2024/01/07 00:00:02;;;;;;;1.07;0.80;;;;;;;7.49;56.80;99897.56;4952068;28;20556;-90
2024/01/07 00:02:30;;;;;;;0.73;0.73;;;;;;;7.36;57.18;99884.88;4952802;28;20404;-90
2024/01/07 00:04:56;;;;;;;2.10;1.90;;;;;;;7.22;57.49;99885.59;4970656;28;20399;-88
2024/01/07 00:07:21;;;;;;;0.60;0.60;;;;;;;7.35;57.30;99904.34;4970639;28;20406;-90
2024/01/07 00:09:47;;;;;;;0.77;0.75;;;;;;;7.59;56.92;99903.44;4973276;28;20388;-87
2024/01/07 00:12:16;;;;;;;0.50;0.50;;;;;;;7.69;56.68;99900.63;4973498;28;20403;-87
2024/01/07 00:14:41;;;;;;;0.52;0.52;;;;;;;7.75;56.39;99894.66;4980083;28;20415;-91
2024/01/07 00:17:07;;;;;;;0.60;0.60;;;;;;;7.83;56.41;99899.91;4977127;28;20393;-88
2024/01/07 00:19:35;;;;;;;1.10;0.50;;;;;;;7.89;56.28;99900.22;4975931;28;20398;-89
2024/01/07 00:22:01;;;;;;;0.50;0.50;;;;;;;7.92;56.22;99899.84;4975453;28;20404;-89
2024/01/07 00:24:28;;;;;;;0.20;0.20;;;;;;;7.97;56.05;99893.03;4976321;28;20466;-90
2024/01/07 00:26:55;;;;;;;0.30;0.30;;;;;;;7.94;55.99;99874.09;4974329;28;20460;-89
2024/01/07 00:29:21;;;;;;;0.80;0.80;;;;;;;7.88;56.34;99870.34;4989241;28;20388;-88
2024/01/07 00:31:47;;;;;;;0.70;0.68;;;;;;;7.75;56.45;99864.81;4972442;28;20403;-90
2024/01/07 00:34:12;;;;;;;0.40;0.40;;;;;;;7.67;56.86;99857.78;4972307;28;20387;-89
2024/01/07 00:36:38;;;;;;;0.73;0.70;;;;;;;7.70;57.13;99854.75;4972603;28;20443;-88
2024/01/07 00:39:07;;;;;;;1.13;1.10;;;;;;;7.88;56.60;99872.16;4973727;28;20427;-88
2024/01/07 00:41:32;;;;;;;0.40;0.40;;;;;;;7.97;56.27;99857.94;4974892;28;20410;-88
2024/01/07 00:43:58;;;;;;;0.50;0.50;;;;;;;7.88;56.70;99859.78;4972741;28;20482;-88
2024/01/07 00:46:24;;;;;;;0.50;0.50;;;;;;;7.97;56.54;99850.00;4973658;28;20478;-88
2024/01/07 00:48:49;;;;;;;0.20;0.20;;;;;;;8.06;56.61;99850.78;4973508;28;20410;-88
2024/01/07 00:51:15;;;;;;;0.70;0.70;;;;;;;8.09;56.47;99850.44;4973295;28;20427;-88
2024/01/07 00:53:40;;;;;;;0.53;0.53;;;;;;;8.02;56.39;99850.31;4973219;28;20475;-88
2024/01/07 00:56:07;;;;;;;0.63;0.63;;;;;;;8.00;56.80;99847.03;4972512;28;20410;-88
2024/01/07 00:58:35;;;;;;;1.55;1.35;;;;;;;7.81;56.95;99840.38;4974732;28;20404;-89
2024/01/07 01:01:01;;;;;;;1.30;1.20;;;;;;;7.71;57.71;99827.41;4973064;28;20982;-89
2024/01/07 01:03:27;;;;;;;1.63;0.73;;;;;;;7.78;57.66;99825.72;5006735;28;20474;-90
2024/01/07 01:05:54;;;;;;;0.90;0.90;;;;;;;7.69;57.99;99818.84;4974863;28;20387;-90
2024/01/07 01:08:19;;;;;;;0.75;0.75;;;;;;;7.90;57.69;99812.94;4975112;28;20401;-92
2024/01/07 01:10:45;;;;;;;0.37;0.37;;;;;;;8.03;57.35;99804.44;4974848;28;20759;-90
2024/01/07 01:13:11;;;;;;;0.37;0.37;;;;;;;8.14;56.89;99816.41;4973817;28;20442;-90
2024/01/07 01:15:37;;;;;;;1.33;1.23;;;;;;;8.14;56.76;99805.84;4973084;28;20926;-89
2024/01/07 01:18:03;;;;;;;2.07;0.83;;;;;;;8.04;56.96;99806.09;4974275;28;20392;-90
2024/01/07 01:20:28;;;;;;;0.40;0.40;;;;;;;7.93;57.26;99791.47;4967024;28;20508;-93
2024/01/07 01:22:54;;;;;;;2.30;2.20;;;;;;;7.94;57.20;99795.78;4962107;28;20487;-91
2024/01/07 01:25:21;;;;;;;0.40;0.40;;;;;;;8.04;57.30;99785.78;4971535;28;20462;-90
2024/01/07 01:27:47;;;;;;;0.95;0.90;;;;;;;7.85;57.58;99760.69;4971830;28;20468;-91
2024/01/07 01:30:13;;;;;;;0.93;0.93;;;;;;;7.84;57.42;99769.59;4972072;28;20434;-91
2024/01/07 01:49:48;;;;;;;1.63;0.73;;;;;;;8.40;56.38;99755.31;4861702;29;20457;-88
2024/01/07 01:52:17;;;;;;;0.40;0.40;;;;;;;8.44;56.55;99745.22;4865697;29;20422;-89
2024/01/07 01:54:42;;;;;;;0.68;0.68;;;;;;;8.40;56.64;99737.63;4859099;29;20409;-92
2024/01/07 01:57:13;;;;;;;0.50;0.50;;;;;;;8.29;56.58;99730.16;4874135;29;20401;-91
2024/01/07 01:59:43;;;;;;;0.40;0.30;;;;;;;8.24;56.81;99721.94;4878765;29;20541;-91
2024/01/07 02:02:09;;;;;;;1.33;1.23;;;;;;;8.19;56.67;99711.94;4873872;29;20448;-92
2024/01/07 02:04:35;;;;;;;0.40;0.40;;;;;;;8.22;56.76;99701.00;4857942;29;20470;-91
2024/01/07 02:07:03;;;;;;;1.50;1.40;;;;;;;8.02;57.14;99689.31;4856846;29;21499;-92
2024/01/07 02:09:31;;;;;;;0.70;0.70;;;;;;;7.96;57.82;99690.00;4857730;29;20794;-92
2024/01/07 02:12:15;;;;;;;1.55;1.45;;;;;;;7.95;57.54;99688.38;4857954;29;20402;-90
2024/01/07 02:14:41;;;;;;;3.08;1.55;;;;;;;7.83;57.72;99670.34;4856363;29;20465;-90
2024/01/07 02:17:07;;;;;;;2.60;2.43;;;;;;;7.71;58.39;99690.22;4872228;29;20398;-90
2024/01/07 02:19:33;;;;;;;1.45;1.40;;;;;;;7.66;58.38;99680.19;4857137;29;20494;-90
2024/01/07 02:22:01;;;;;;;1.40;1.30;;;;;;;7.74;58.10;99671.41;4872819;29;20413;-89
2024/01/07 02:24:30;;;;;;;3.88;0.70;;;;;;;7.76;57.80;99671.22;4849831;29;20403;-89
2024/01/07 02:26:56;;;;;;;0.68;0.68;;;;;;;7.68;57.78;99663.38;4856526;29;20405;-90
2024/01/07 02:29:25;;;;;;;0.70;0.70;;;;;;;7.57;58.40;99675.97;4869611;29;20401;-88
2024/01/07 02:31:51;;;;;;;0.70;0.70;;;;;;;7.73;58.09;99675.03;4871700;29;20409;-88
2024/01/07 02:34:16;;;;;;;1.40;0.80;;;;;;;7.74;57.70;99670.56;4856091;29;20466;-87
2024/01/07 02:36:44;;;;;;;1.60;1.30;;;;;;;7.74;57.76;99663.50;4855905;29;20425;-88
2024/01/07 02:39:10;;;;;;;0.88;0.88;;;;;;;7.76;57.48;99656.22;4855798;29;20487;-86
2024/01/07 02:41:37;;;;;;;0.32;0.32;;;;;;;7.80;57.50;99654.06;4856666;29;20421;-86
2024/01/07 02:44:03;;;;;;;1.00;1.00;;;;;;;7.73;57.19;99642.56;4854905;29;20409;-91
2024/01/07 02:46:28;;;;;;;0.80;0.80;;;;;;;7.64;57.66;99636.53;4855116;29;20425;-89
2024/01/07 02:48:54;;;;;;;1.00;1.00;;;;;;;7.60;57.76;99630.00;4854919;29;20429;-88
2024/01/07 02:51:20;;;;;;;0.60;0.55;;;;;;;7.61;57.66;99637.69;4840925;29;20421;-86
2024/01/07 02:53:45;;;;;;;3.70;1.20;;;;;;;7.59;57.54;99626.50;4855896;29;20401;-87
2024/01/07 02:56:11;;;;;;;1.90;1.10;;;;;;;7.40;57.83;99609.38;4870599;29;20425;-87
2024/01/07 02:58:36;;;;;;;0.73;0.60;;;;;;;7.49;57.52;99618.03;4856460;29;21087;-87
2024/01/07 03:01:07;;;;;;;1.33;1.23;;;;;;;7.46;57.82;99621.03;4860248;29;20417;-89
2024/01/07 03:03:33;;;;;;;0.40;0.40;;;;;;;7.49;57.40;99619.84;4869660;29;20417;-86
2024/01/07 03:05:59;;;;;;;1.37;1.27;;;;;;;7.49;57.60;99628.59;4871575;29;20773;-86
2024/01/07 03:08:24;;;;;;;1.25;1.25;;;;;;;7.45;57.48;99624.66;4856520;29;20397;-87
2024/01/07 03:10:50;;;;;;;2.05;1.15;;;;;;;7.42;57.76;99622.38;4872110;29;20752;-86
2024/01/07 03:13:16;;;;;;;0.70;0.70;;;;;;;7.41;58.10;99623.38;4856662;29;20397;-85
2024/01/07 03:15:41;;;;;;;0.40;0.40;;;;;;;7.46;57.66;99624.47;4855046;29;20421;-88
2024/01/07 03:18:07;;;;;;;0.80;0.43;;;;;;;7.44;57.62;99625.66;4855636;29;20397;-86
2024/01/07 03:20:42;;;;;;;1.50;1.40;;;;;;;7.33;58.02;99618.13;4871153;29;20910;-87
2024/01/07 03:23:08;;;;;;;1.20;1.10;;;;;;;7.26;58.22;99616.22;4871004;29;20424;-89
2024/01/07 03:25:33;;;;;;;0.67;0.67;;;;;;;7.34;58.12;99620.59;4870636;29;20398;-87
2024/01/07 03:27:59;;;;;;;1.30;1.20;;;;;;;7.44;57.78;99609.84;4855693;29;20434;-88
2024/01/07 03:30:25;;;;;;;0.90;0.70;;;;;;;7.50;57.68;99597.75;4871123;29;20424;-89
2024/01/07 03:32:50;;;;;;;0.80;0.75;;;;;;;7.40;57.77;99592.72;4871404;29;20429;-86
2024/01/07 03:35:16;;;;;;;2.33;2.13;;;;;;;7.04;58.43;99573.06;4855926;29;20421;-87
2024/01/07 03:37:42;;;;;;;1.13;1.10;;;;;;;7.10;58.93;99570.72;4858117;29;20428;-88
2024/01/07 03:40:14;;;;;;;0.97;0.97;;;;;;;7.09;58.56;99564.59;4862321;29;20927;-86
2024/01/07 03:42:39;;;;;;;0.50;0.50;;;;;;;7.13;58.74;99565.91;4885970;29;20405;-87
2024/01/07 03:45:05;;;;;;;0.40;0.40;;;;;;;7.30;58.06;99563.97;4879549;29;20482;-88
2024/01/07 03:47:31;;;;;;;1.60;1.37;;;;;;;7.13;58.68;99552.75;4879177;29;20408;-88
2024/01/07 03:49:57;;;;;;;0.95;0.95;;;;;;;7.06;58.81;99549.97;4875529;29;20447;-87
2024/01/07 03:52:23;;;;;;;1.55;1.45;;;;;;;7.17;58.45;99540.84;4859425;29;20784;-87
2024/01/07 03:54:49;;;;;;;0.40;0.40;;;;;;;7.26;58.30;99549.50;4861236;29;20399;-87
2024/01/07 03:57:14;;;;;;;0.50;0.50;;;;;;;7.23;58.23;99558.56;4878104;29;20396;-87
2024/01/07 03:59:40;;;;;;;1.50;1.40;;;;;;;7.16;58.44;99560.28;4879834;29;20401;-86
2024/01/07 04:02:06;;;;;;;1.17;1.17;;;;;;;7.11;58.30;99562.63;4869010;29;20424;-83
2024/01/07 04:04:32;;;;;;;1.45;1.38;;;;;;;7.17;58.47;99556.66;4892086;29;20556;-87
2024/01/07 04:06:57;;;;;;;0.30;0.30;;;;;;;7.36;58.21;99560.59;4876452;29;20499;-86
2024/01/07 04:09:23;;;;;;;1.00;0.90;;;;;;;7.51;57.87;99557.19;4876202;29;20403;-87
2024/01/07 04:11:51;;;;;;;0.67;0.67;;;;;;;7.56;57.26;99553.03;4861544;29;20403;-86
2024/01/07 04:14:17;;;;;;;0.70;0.70;;;;;;;7.51;57.43;99559.81;4861934;29;20415;-87
2024/01/07 04:16:42;;;;;;;1.30;1.20;;;;;;;7.43;57.54;99545.72;4876566;29;20432;-88
2024/01/07 04:19:08;;;;;;;0.60;0.60;;;;;;;7.36;57.89;99551.88;4859261;29;20402;-88
2024/01/07 04:21:35;;;;;;;0.50;0.50;;;;;;;7.30;58.00;99545.50;4860792;29;20420;-87
2024/01/07 04:24:01;;;;;;;0.85;0.85;;;;;;;7.20;58.18;99548.41;4859629;29;20409;-88
2024/01/07 04:26:27;;;;;;;0.50;0.50;;;;;;;7.35;58.27;99551.06;4874892;29;20417;-88
2024/01/07 04:28:52;;;;;;;1.50;1.37;;;;;;;7.21;58.57;99536.03;4858046;29;20413;-88
2024/01/07 04:31:18;;;;;;;1.43;1.33;;;;;;;6.91;59.15;99528.00;4873131;29;20510;-89
2024/01/07 04:33:44;;;;;;;1.20;1.10;;;;;;;7.12;58.85;99537.91;4859362;29;20402;-88
2024/01/07 04:36:10;;;;;;;0.75;0.75;;;;;;;6.95;59.16;99531.13;4859629;29;20925;-89
2024/01/07 04:38:37;;;;;;;0.73;0.73;;;;;;;6.99;59.32;99521.88;4859745;29;20476;-88
2024/01/07 04:41:02;;;;;;;1.50;1.40;;;;;;;7.14;58.64;99532.47;4875295;29;20413;-89
2024/01/07 04:43:28;;;;;;;1.42;1.30;;;;;;;7.10;58.68;99526.72;4860420;29;20402;-88
2024/01/07 04:45:54;;;;;;;1.42;1.33;;;;;;;6.98;59.11;99526.31;4875365;29;20398;-88
2024/01/07 04:48:19;;;;;;;0.95;0.80;;;;;;;7.02;58.94;99513.59;4858926;29;20850;-87
2024/01/07 04:50:45;;;;;;;1.57;1.47;;;;;;;7.16;59.25;99518.09;4859934;29;20936;-87
2024/01/07 04:53:14;;;;;;;0.33;0.33;;;;;;;7.38;58.01;99527.00;4857980;29;20541;-88
2024/01/07 04:55:39;;;;;;;1.00;1.00;;;;;;;7.44;57.65;99512.28;4860150;29;20417;-88
2024/01/07 04:58:05;;;;;;;0.70;0.70;;;;;;;7.47;57.96;99531.19;4874850;29;20410;-87
2024/01/07 05:00:31;;;;;;;0.43;0.43;;;;;;;7.56;58.06;99507.38;4875172;29;20410;-88
2024/01/07 05:02:56;;;;;;;1.55;1.45;;;;;;;7.42;57.91;99514.28;4860115;29;20409;-87
2024/01/07 05:05:22;;;;;;;1.00;0.90;;;;;;;7.58;58.08;99524.69;4874306;29;20409;-87
2024/01/07 05:07:47;;;;;;;0.63;0.63;;;;;;;7.68;57.53;99532.31;4874282;29;20478;-87
2024/01/07 05:10:13;;;;;;;0.90;0.90;;;;;;;7.81;57.58;99536.97;4874127;29;20481;-87
2024/01/07 05:12:39;;;;;;;1.67;1.57;;;;;;;7.92;57.23;99531.22;4874972;29;20482;-87
2024/01/07 05:15:06;;;;;;;1.17;1.13;;;;;;;7.75;57.18;99530.59;4872597;29;20424;-89
2024/01/07 05:17:32;;;;;;;1.00;0.98;;;;;;;7.64;57.56;99517.84;4851054;29;20415;-87
2024/01/07 05:19:57;;;;;;;0.87;0.87;;;;;;;7.58;57.84;99513.28;4852952;29;20854;-87
2024/01/07 05:22:27;;;;;;;4.10;1.05;;;;;;;7.55;57.86;99513.66;4851857;29;20431;-87
2024/01/07 05:24:54;;;;;;;0.70;0.70;;;;;;;7.54;57.80;99512.81;4852415;29;20437;-87
2024/01/07 05:27:20;;;;;;;1.20;1.10;;;;;;;7.54;57.77;99506.75;4852522;29;20466;-87
2024/01/07 05:29:46;;;;;;;0.80;0.80;;;;;;;7.58;57.75;99505.38;4852469;29;20413;-85
2024/01/07 05:32:12;;;;;;;1.20;0.95;;;;;;;7.60;57.90;99512.13;4851350;29;20411;-88
2024/01/07 05:34:38;;;;;;;1.60;1.40;;;;;;;7.42;57.94;99504.56;4837642;29;20473;-86
2024/01/07 05:37:04;;;;;;;1.73;1.63;;;;;;;7.36;58.21;99488.63;4837173;29;20427;-87
2024/01/07 05:39:29;;;;;;;1.15;1.13;;;;;;;7.37;58.65;99499.00;4837869;29;20974;-86
2024/01/07 05:41:55;;;;;;;0.90;0.90;;;;;;;7.45;58.28;99491.00;4852224;29;20410;-89
2024/01/07 05:44:20;;;;;;;0.40;0.40;;;;;;;7.58;57.92;99486.91;4842922;29;20479;-89
2024/01/07 05:46:46;;;;;;;0.63;0.63;;;;;;;7.49;58.14;99483.56;4871575;29;20423;-84
2024/01/07 05:49:12;;;;;;;0.68;0.68;;;;;;;7.61;58.06;99479.47;4855524;29;20434;-86
2024/01/07 05:51:41;;;;;;;0.50;0.50;;;;;;;7.76;57.89;99487.41;4860812;29;20484;-86
2024/01/07 05:54:06;;;;;;;0.40;0.40;;;;;;;7.90;57.72;99479.66;4841081;29;20418;-87
2024/01/07 05:56:32;;;;;;;0.60;0.60;;;;;;;7.80;57.46;99459.66;4863876;29;20549;-88
2024/01/07 05:58:58;;;;;;;1.63;1.52;;;;;;;7.73;57.87;99468.47;4865950;29;20493;-84
2024/01/07 06:01:23;;;;;;;2.77;1.33;;;;;;;7.78;57.70;99476.66;4865276;29;20894;-86
2024/01/07 06:03:49;;;;;;;2.10;1.60;;;;;;;7.88;57.56;99473.75;4866388;29;20465;-88
2024/01/07 06:06:15;;;;;;;1.60;1.10;;;;;;;7.83;57.72;99480.41;4851781;29;20405;-86
2024/01/07 06:08:43;;;;;;;0.40;0.40;;;;;;;7.95;57.58;99482.56;4863312;29;20398;-87
2024/01/07 06:11:10;;;;;;;0.63;0.63;;;;;;;8.05;57.19;99472.56;4849536;29;20414;-86
2024/01/07 06:13:36;;;;;;;0.68;0.68;;;;;;;8.09;57.00;99465.09;4865907;29;20418;-85
2024/01/07 06:16:02;;;;;;;0.40;0.40;;;;;;;8.17;56.91;99478.16;4865872;29;20434;-86
2024/01/07 06:18:28;;;;;;;1.20;1.20;;;;;;;8.33;57.03;99480.59;4865622;29;20549;-85
2024/01/07 06:20:53;;;;;;;0.20;0.20;;;;;;;8.42;56.71;99468.13;4859197;29;20766;-87
2024/01/07 06:23:20;;;;;;;0.77;0.77;;;;;;;8.47;56.61;99463.09;4841269;29;20408;-87
2024/01/07 06:25:46;;;;;;;0.70;0.70;;;;;;;8.35;56.64;99462.72;4851019;29;20410;-86
2024/01/07 06:28:11;;;;;;;0.83;0.83;;;;;;;8.17;56.66;99463.13;4835156;29;20419;-84
2024/01/07 06:30:37;;;;;;;0.73;0.73;;;;;;;8.16;57.19;99464.16;4850622;29;20410;-84
2024/01/07 06:33:03;;;;;;;0.30;0.30;;;;;;;8.22;56.61;99462.59;4850751;29;20468;-85
2024/01/07 06:35:29;;;;;;;1.00;0.82;;;;;;;8.22;57.03;99454.66;4850840;29;20430;-86
2024/01/07 06:37:54;;;;;;;1.38;1.10;;;;;;;8.14;56.83;99460.03;4835095;29;20450;-86
2024/01/07 06:40:20;;;;;;;0.40;0.40;;;;;;;8.22;57.25;99478.44;4851576;29;20411;-86
2024/01/07 06:42:47;;;;;;;0.93;0.93;;;;;;;8.18;57.00;99472.69;4852674;29;20439;-87
2024/01/07 06:45:14;;;;;;;1.00;1.00;;;;;;;8.15;56.89;99469.63;4853144;29;20407;-88
2024/01/07 06:47:40;;;;;;;0.90;0.70;;;;;;;8.35;57.22;99470.66;4853002;29;20903;-88
2024/01/07 06:50:10;;;;;;;0.68;0.68;;;;;;;8.45;56.60;99462.47;4838078;29;20923;-88
2024/01/07 06:52:36;;;;;;;1.50;1.30;;;;;;;8.48;56.71;99467.41;4838070;29;20418;-90
2024/01/07 06:55:01;;;;;;;0.30;0.30;;;;;;;8.51;56.35;99468.84;4853666;29;20494;-87
2024/01/07 06:57:27;;;;;;;0.52;0.43;;;;;;;8.62;56.67;99481.53;4854146;29;20422;-89
2024/01/07 06:59:52;;;;;;;0.35;0.35;;;;;;;8.62;56.41;99468.31;4854152;29;20399;-88
2024/01/07 07:02:20;;;;;;;0.50;0.50;;;;;;;8.63;56.44;99485.03;4854077;29;20411;-89
2024/01/07 07:04:46;;;;;;;1.50;0.80;;;;;;;8.70;56.19;99477.97;4856228;29;20472;-90
2024/01/07 07:07:12;;;;;;;1.15;1.05;;;;;;;8.71;56.64;99483.03;4840169;29;20392;-89
2024/01/07 07:09:38;;;;;;;0.70;0.70;;;;;;;8.63;56.65;99474.44;4854736;29;20415;-90
2024/01/07 07:12:04;;;;;;;0.57;0.57;;;;;;;8.61;56.62;99480.72;4854694;29;20410;-91
2024/01/07 07:14:32;;;;;;;0.40;0.40;;;;;;;8.64;56.93;99481.34;4853442;29;20415;-89
2024/01/07 07:16:58;;;;;;;0.60;0.60;;;;;;;8.65;56.58;99477.72;4838952;29;20415;-88
2024/01/07 07:19:23;;;;;;;0.53;0.53;;;;;;;8.67;56.41;99483.63;4854166;29;20406;-91
2024/01/07 07:21:49;;;;;;;0.40;0.40;;;;;;;8.69;56.29;99487.72;4849818;29;20409;-86
2024/01/07 07:24:15;;;;;;;0.70;0.70;;;;;;;8.76;56.91;99495.72;4856421;29;20404;-87
2024/01/07 07:26:40;;;;;;;0.30;0.30;;;;;;;8.78;56.10;99498.97;4855757;29;20497;-89
2024/01/07 07:29:10;;;;;;;1.00;0.82;;;;;;;8.78;56.70;99502.44;4854480;29;20849;-90
2024/01/07 07:31:42;;;;;;;0.40;0.40;;;;;;;8.89;56.67;99501.09;4851991;29;20410;-91
2024/01/07 07:34:09;;;;;;;0.73;0.73;;;;;;;8.99;56.37;99501.63;4853829;29;20424;-88
2024/01/07 07:36:39;;;;;;;0.60;0.60;;;;;;;8.99;56.40;99491.06;4872411;29;20417;-91
2024/01/07 07:39:05;;;;;;;0.50;0.50;;;;;;;9.05;56.30;99497.41;4873941;29;20413;-90
2024/01/07 07:41:31;;;;;;;1.27;0.68;;;;;;;9.05;56.55;99492.13;4876632;29;20424;-90
2024/01/07 07:43:56;;;;;;;0.90;0.90;;;;;;;9.13;56.82;99502.56;4874486;29;20435;-92
2024/01/07 07:46:22;;;;;;;1.13;1.03;;;;;;;9.07;56.52;99490.09;4893968;29;20399;-90
2024/01/07 07:48:48;;;;;;;1.00;0.80;;;;;;;9.03;57.11;99498.59;4886196;29;20496;-93
2024/01/07 07:51:14;;;;;;;0.83;0.83;;;;;;;9.04;56.94;99506.34;4876627;29;20409;-89
2024/01/07 07:53:40;;;;;;;1.10;1.00;;;;;;;9.01;56.74;99492.69;4874449;29;20420;-87
2024/01/07 07:56:06;;;;;;;1.70;1.40;;;;;;;9.01;57.13;99490.06;4855638;29;20425;-90
2024/01/07 07:58:35;;;;;;;2.70;1.20;;;;;;;9.07;56.72;99503.31;4857054;29;20414;-89
2024/01/07 08:01:00;;;;;;;1.35;1.25;;;;;;;9.08;57.12;99494.38;4856662;29;20412;-87
2024/01/07 08:03:27;;;;;;;1.90;0.93;;;;;;;9.08;56.83;99501.50;4855055;29;20814;-89
2024/01/07 08:05:52;;;;;;;1.25;1.15;;;;;;;9.01;57.06;99505.91;4873150;29;20417;-87
2024/01/07 08:08:18;;;;;;;1.53;1.43;;;;;;;8.91;57.41;99498.28;4859557;29;20402;-86
2024/01/07 08:10:43;;;;;;;3.00;2.80;;;;;;;8.89;57.83;99506.41;4888148;29;20512;-87
2024/01/07 08:13:12;;;;;;;1.50;1.40;;;;;;;8.83;57.84;99503.72;4860490;29;20434;-88
2024/01/07 08:15:38;;;;;;;1.13;1.08;;;;;;;8.86;57.83;99496.22;4873537;29;20432;-89
2024/01/07 08:18:04;;;;;;;1.20;1.20;;;;;;;8.78;58.34;99498.97;4870916;29;20480;-89
2024/01/07 08:20:30;;;;;;;6.07;2.77;;;;;;;8.70;58.24;99502.56;4860268;29;20418;-89
2024/01/07 08:22:56;;;;;;;1.50;0.80;;;;;;;8.72;58.65;99495.28;4860083;29;20783;-90
2024/01/07 08:25:23;;;;;;;0.60;0.60;;;;;;;8.75;58.65;99501.97;4863751;29;20442;-88
2024/01/07 08:27:49;;;;;;;2.10;1.20;;;;;;;8.76;58.40;99496.53;4862920;29;20809;-90
2024/01/07 08:30:15;;;;;;;1.20;1.20;;;;;;;8.52;59.36;99489.78;4862378;29;20405;-88
2024/01/07 08:32:41;;;;;;;1.03;1.00;;;;;;;8.51;60.28;99503.16;4864975;29;20428;-93
2024/01/07 08:35:07;;;;;;;1.88;1.67;;;;;;;8.49;60.18;99506.00;4861650;29;20847;-89
2024/01/07 08:37:33;;;;;;;2.80;1.02;;;;;;;8.33;60.63;99506.19;4877219;29;20401;-89
2024/01/07 08:39:59;;;;;;;2.15;1.10;;;;;;;8.36;61.17;99519.03;4876854;29;20424;-89
2024/01/07 08:42:25;;;;;;;1.05;1.00;;;;;;;8.30;61.78;99517.09;4877484;29;20409;-88
2024/01/07 08:44:50;;;;;;;1.30;0.75;;;;;;;8.30;61.52;99507.38;4862132;29;20857;-88
2024/01/07 08:47:17;;;;;;;1.30;1.20;;;;;;;8.30;61.61;99498.63;4860917;29;20405;-89
2024/01/07 08:49:43;;;;;;;0.80;0.80;;;;;;;8.32;61.75;99502.72;4867952;29;20535;-87
2024/01/07 08:52:09;;;;;;;2.00;0.95;;;;;;;8.38;61.53;99503.81;4854219;29;20406;-87
2024/01/07 08:54:35;;;;;;;1.03;1.03;;;;;;;8.34;62.26;99497.28;4866838;29;20416;-88
2024/01/07 08:57:02;;;;;;;1.65;1.13;;;;;;;8.26;62.42;99505.28;4868378;29;20823;-88
2024/01/07 08:59:27;;;;;;;1.60;1.20;;;;;;;8.33;62.27;99498.25;4872145;29;20442;-87
2024/01/07 09:01:53;;;;;;;1.10;1.10;;;;;;;8.17;62.75;99494.00;4861398;29;21048;-87
2024/01/07 09:04:19;;;;;;;0.57;0.57;;;;;;;8.21;63.18;99487.34;4857262;29;20977;-88
2024/01/07 09:06:45;;;;;;;1.63;1.17;;;;;;;8.33;62.34;99499.06;4874794;29;20398;-88
2024/01/07 09:09:11;;;;;;;1.50;1.40;;;;;;;8.21;63.03;99488.19;4875108;29;20406;-88
2024/01/07 09:11:37;;;;;;;0.70;0.70;;;;;;;8.36;62.85;99479.41;4856080;29;20416;-89
2024/01/07 09:14:03;;;;;;;2.70;2.50;;;;;;;8.34;62.21;99473.50;4849825;29;20480;-90
2024/01/07 09:16:29;;;;;;;1.35;1.27;;;;;;;8.23;63.13;99469.53;4861675;29;20767;-89
2024/01/07 09:18:55;;;;;;;0.77;0.77;;;;;;;8.32;62.96;99465.75;4876304;29;20413;-91
2024/01/07 09:21:23;;;;;;;2.03;1.93;;;;;;;8.45;62.96;99465.13;4871350;29;20416;-88
2024/01/07 09:23:48;;;;;;;0.82;0.82;;;;;;;8.39;63.37;99464.00;4853706;29;20420;-89
2024/01/07 09:26:14;;;;;;;0.88;0.88;;;;;;;8.49;63.27;99458.44;4856073;29;20449;-88
2024/01/07 09:28:40;;;;;;;0.50;0.50;;;;;;;8.23;64.21;99461.59;4855734;29;20410;-87
2024/01/07 09:31:07;;;;;;;1.45;1.35;;;;;;;8.60;63.70;99462.41;4872991;29;20898;-88
2024/01/07 09:33:32;;;;;;;0.90;0.70;;;;;;;8.87;62.82;99458.19;4872788;29;20405;-87
2024/01/07 09:35:58;;;;;;;4.70;1.50;;;;;;;8.96;62.43;99453.59;4871838;29;20413;-87
2024/01/07 09:38:25;;;;;;;0.60;0.60;;;;;;;8.90;63.40;99451.75;4856756;29;20501;-90
2024/01/07 09:40:54;;;;;;;5.50;1.00;;;;;;;9.03;62.87;99451.03;4879894;29;20461;-91
2024/01/07 09:43:22;;;;;;;0.87;0.87;;;;;;;9.03;63.56;99437.81;4860973;29;20416;-93
2024/01/07 09:49:03;;;;;;;1.35;1.25;;;;;;;9.23;63.44;99435.31;4841306;29;20435;-87
2024/01/07 09:51:30;;;;;;;0.57;0.57;;;;;;;9.11;63.47;99425.28;4857910;29;20407;-86
2024/01/07 09:54:05;;;;;;;0.98;0.98;;;;;;;9.02;63.90;99409.72;4865691;29;20408;-87
2024/01/07 09:56:50;;;;;;;0.35;0.35;;;;;;;9.19;63.59;99414.53;4842049;29;20423;-85
2024/01/07 09:59:17;;;;;;;0.32;0.32;;;;;;;9.14;63.97;99413.50;4841504;29;20411;-86
2024/01/07 10:01:45;;;;;;;1.35;0.90;;;;;;;9.06;63.87;99395.94;4855431;29;20406;-86
2024/01/07 10:04:16;;;;;;;0.85;0.82;;;;;;;9.01;64.11;99401.00;4839857;29;20407;-86
2024/01/07 10:06:48;;;;;;;1.95;1.85;;;;;;;9.32;63.57;99395.28;4853760;29;20998;-87
2024/01/07 10:09:15;;;;;;;1.05;1.02;;;;;;;9.42;63.48;99384.38;4843140;29;20417;-87
2024/01/07 10:11:41;;;;;;;1.10;1.10;;;;;;;9.45;63.13;99383.16;4846060;29;20413;-86
2024/01/07 10:14:07;;;;;;;1.17;1.00;;;;;;;9.48;63.45;99373.00;4852458;29;20395;-83
2024/01/07 10:16:33;;;;;;;0.50;0.50;;;;;;;9.57;62.93;99371.81;4850562;29;20412;-86
2024/01/07 10:19:01;;;;;;;1.70;0.90;;;;;;;9.77;63.13;99371.09;4855110;29;20451;-85
2024/01/07 10:21:32;;;;;;;1.50;0.90;;;;;;;9.89;62.41;99360.78;4825401;29;20769;-85
2024/01/07 10:24:11;;;;;;;0.70;0.70;;;;;;;10.11;62.28;99364.91;4840328;29;20473;-85
2024/01/07 10:26:43;;;;;;;1.80;1.70;;;;;;;10.10;61.90;99355.34;4856634;29;20559;-85
2024/01/07 10:29:11;;;;;;;0.90;0.90;;;;;;;9.95;62.37;99354.69;4840459;29;20403;-86
2024/01/07 10:31:42;;;;;;;1.52;1.42;;;;;;;10.02;62.67;99352.06;4855407;29;20408;-86
2024/01/07 10:34:10;;;;;;;0.55;0.55;;;;;;;10.11;62.17;99349.00;4841018;29;20795;-85
2024/01/07 10:36:41;;;;;;;1.10;1.00;;;;;;;10.12;62.47;99350.66;4839784;29;20938;-86
2024/01/07 10:39:11;;;;;;;0.52;0.52;;;;;;;10.15;62.45;99352.06;4840338;29;20434;-84
2024/01/07 10:41:39;;;;;;;1.10;1.10;;;;;;;10.26;62.35;99345.38;4855364;29;20408;-85
2024/01/07 10:44:05;;;;;;;0.40;0.40;;;;;;;10.31;61.95;99338.47;4855004;29;20410;-86
2024/01/07 10:46:31;;;;;;;0.37;0.37;;;;;;;10.47;61.99;99342.56;4854709;29;20411;-87
2024/01/07 10:49:12;;;;;;;0.60;0.60;;;;;;;10.39;61.59;99342.78;4854449;29;20427;-86
2024/01/07 10:51:41;;;;;;;3.78;0.47;;;;;;;10.35;61.76;99351.31;4854349;29;20784;-86
2024/01/07 10:54:08;;;;;;;0.43;0.43;;;;;;;10.18;62.58;99345.56;4838866;29;20412;-86
2024/01/07 10:56:43;;;;;;;0.43;0.43;;;;;;;10.19;62.07;99342.72;4854096;29;20435;-86
2024/01/07 10:59:09;;;;;;;0.40;0.40;;;;;;;10.02;62.56;99350.22;4837904;29;20414;-86
2024/01/07 11:01:37;;;;;;;0.30;0.30;;;;;;;10.10;62.62;99355.34;4853042;29;20416;-86
2024/01/07 11:04:10;;;;;;;0.70;0.70;;;;;;;10.18;62.22;99349.03;4853299;29;20395;-86
2024/01/07 11:07:02;;;;;;;0.80;0.80;;;;;;;10.07;62.30;99341.69;4837689;29;20443;-86
2024/01/07 11:09:35;;;;;;;0.50;0.50;;;;;;;10.14;62.24;99345.16;4836202;29;20982;-86
2024/01/07 11:12:07;;;;;;;3.30;1.30;;;;;;;10.06;62.32;99334.75;4837683;29;20407;-86
2024/01/07 11:14:44;;;;;;;2.10;0.90;;;;;;;10.09;62.50;99340.47;4853151;29;20815;-86
2024/01/07 11:17:13;;;;;;;0.57;0.57;;;;;;;10.05;62.63;99341.06;4838574;29;20446;-86
2024/01/07 11:19:50;;;;;;;1.30;1.20;;;;;;;10.06;63.14;99342.69;4853452;29;20444;-87
2024/01/07 11:22:27;;;;;;;0.60;0.60;;;;;;;10.22;62.45;99339.66;4839767;29;20887;-87
2024/01/07 11:25:01;;;;;;;1.00;0.82;;;;;;;10.24;62.73;99342.91;4854054;29;20434;-89
2024/01/07 11:27:33;;;;;;;0.60;0.60;;;;;;;10.23;62.56;99345.78;4853862;29;20406;-88
2024/01/07 11:30:06;;;;;;;2.70;1.40;;;;;;;10.28;62.42;99333.56;4838340;29;20399;-86
2024/01/07 11:32:34;;;;;;;5.93;2.03;;;;;;;9.99;62.82;99332.06;4853737;29;20399;-88
2024/01/07 11:35:04;;;;;;;0.83;0.83;;;;;;;9.87;62.96;99336.34;4839540;29;20462;-86
2024/01/07 11:37:46;;;;;;;2.50;2.30;;;;;;;10.03;63.16;99329.84;4840065;29;20764;-86
2024/01/07 11:40:15;;;;;;;1.05;1.05;;;;;;;10.02;62.93;99330.88;4853505;29;20422;-87
2024/01/07 11:42:41;;;;;;;0.90;0.90;;;;;;;10.07;62.89;99326.59;4838454;29;20396;-88
2024/01/07 11:45:10;;;;;;;2.20;1.80;;;;;;;10.16;62.77;99326.44;4838417;29;20411;-88
2024/01/07 11:47:41;;;;;;;0.57;0.57;;;;;;;10.13;62.75;99324.97;4838965;29;20399;-87
2024/01/07 11:50:07;;;;;;;0.60;0.60;;;;;;;10.06;63.36;99335.56;4853210;29;20488;-87
2024/01/07 11:52:35;;;;;;;1.40;1.30;;;;;;;10.00;63.29;99330.25;4838074;29;20494;-88
2024/01/07 11:55:01;;;;;;;1.75;1.65;;;;;;;9.79;63.92;99324.09;4836743;29;20410;-87
2024/01/07 11:57:29;;;;;;;0.70;0.70;;;;;;;9.80;64.22;99322.28;4837267;29;20392;-88
2024/01/07 12:00:01;;;;;;;0.55;0.55;;;;;;;9.77;64.16;99318.97;4860774;29;20418;-85